sensor_id;sensor_type;location;lat;lon;timestamp;P1;durP1;ratioP1;P2;durP2;ratioP2
41629;SDS011;27322;49.488;8.480;2023-02-12T00:00:34;40.40;;;24.20;;
41629;SDS011;27322;49.488;8.480;2023-02-12T00:03:01;36.92;;;22.13;;
41629;SDS011;27322;49.488;8.480;2023-02-12T00:05:26;37.38;;;22.30;;
41629;SDS011;27322;49.488;8.480;2023-02-12T00:07:52;38.35;;;23.02;;
41629;SDS011;27322;49.488;8.480;2023-02-12T00:10:18;41.08;;;22.98;;
41629;SDS011;27322;49.488;8.480;2023-02-12T00:12:44;37.55;;;21.95;;
41629;SDS011;27322;49.488;8.480;2023-02-12T00:15:10;37.88;;;21.67;;
41629;SDS011;27322;49.488;8.480;2023-02-12T00:17:35;37.25;;;22.10;;
41629;SDS011;27322;49.488;8.480;2023-02-12T00:20:01;37.45;;;22.58;;
41629;SDS011;27322;49.488;8.480;2023-02-12T00:22:27;38.35;;;21.85;;
41629;SDS011;27322;49.488;8.480;2023-02-12T00:24:53;37.83;;;22.42;;
41629;SDS011;27322;49.488;8.480;2023-02-12T00:27:19;36.45;;;22.15;;
41629;SDS011;27322;49.488;8.480;2023-02-12T00:29:45;36.35;;;21.08;;
41629;SDS011;27322;49.488;8.480;2023-02-12T00:32:11;39.28;;;20.75;;
41629;SDS011;27322;49.488;8.480;2023-02-12T00:34:38;34.15;;;21.40;;
41629;SDS011;27322;49.488;8.480;2023-02-12T00:37:04;37.28;;;21.98;;
41629;SDS011;27322;49.488;8.480;2023-02-12T00:39:30;35.97;;;21.50;;
41629;SDS011;27322;49.488;8.480;2023-02-12T00:41:55;36.85;;;21.10;;
41629;SDS011;27322;49.488;8.480;2023-02-12T00:44:21;38.03;;;21.70;;
41629;SDS011;27322;49.488;8.480;2023-02-12T00:46:47;35.28;;;21.08;;
41629;SDS011;27322;49.488;8.480;2023-02-12T00:49:12;36.08;;;21.58;;
41629;SDS011;27322;49.488;8.480;2023-02-12T00:51:38;35.05;;;20.48;;
41629;SDS011;27322;49.488;8.480;2023-02-12T00:54:04;35.03;;;20.90;;
41629;SDS011;27322;49.488;8.480;2023-02-12T00:56:30;34.03;;;20.05;;
41629;SDS011;27322;49.488;8.480;2023-02-12T00:58:56;35.03;;;20.95;;
41629;SDS011;27322;49.488;8.480;2023-02-12T01:01:21;39.63;;;21.95;;
41629;SDS011;27322;49.488;8.480;2023-02-12T01:03:47;35.33;;;21.05;;
41629;SDS011;27322;49.488;8.480;2023-02-12T01:06:12;35.95;;;20.73;;
41629;SDS011;27322;49.488;8.480;2023-02-12T01:08:38;36.67;;;20.65;;
41629;SDS011;27322;49.488;8.480;2023-02-12T01:11:04;34.60;;;21.08;;
41629;SDS011;27322;49.488;8.480;2023-02-12T01:13:31;35.90;;;21.88;;
41629;SDS011;27322;49.488;8.480;2023-02-12T01:16:07;37.72;;;22.40;;
41629;SDS011;27322;49.488;8.480;2023-02-12T01:18:37;39.58;;;22.27;;
41629;SDS011;27322;49.488;8.480;2023-02-12T01:21:10;34.55;;;21.10;;
41629;SDS011;27322;49.488;8.480;2023-02-12T01:23:37;33.08;;;20.10;;
41629;SDS011;27322;49.488;8.480;2023-02-12T01:26:03;34.28;;;20.17;;
41629;SDS011;27322;49.488;8.480;2023-02-12T01:28:29;37.90;;;21.42;;
41629;SDS011;27322;49.488;8.480;2023-02-12T01:30:55;37.85;;;22.17;;
41629;SDS011;27322;49.488;8.480;2023-02-12T01:33:20;37.22;;;21.98;;
41629;SDS011;27322;49.488;8.480;2023-02-12T01:35:46;36.70;;;22.25;;
41629;SDS011;27322;49.488;8.480;2023-02-12T01:38:11;39.75;;;22.25;;
41629;SDS011;27322;49.488;8.480;2023-02-12T01:40:37;37.50;;;22.40;;
41629;SDS011;27322;49.488;8.480;2023-02-12T01:43:03;40.20;;;21.90;;
41629;SDS011;27322;49.488;8.480;2023-02-12T01:45:37;38.95;;;21.45;;
41629;SDS011;27322;49.488;8.480;2023-02-12T01:48:10;37.13;;;22.10;;
41629;SDS011;27322;49.488;8.480;2023-02-12T01:50:37;40.25;;;22.75;;
41629;SDS011;27322;49.488;8.480;2023-02-12T01:53:03;39.35;;;23.00;;
41629;SDS011;27322;49.488;8.480;2023-02-12T01:55:28;38.00;;;22.95;;
41629;SDS011;27322;49.488;8.480;2023-02-12T01:57:54;37.45;;;22.48;;
41629;SDS011;27322;49.488;8.480;2023-02-12T02:00:21;39.38;;;22.80;;
41629;SDS011;27322;49.488;8.480;2023-02-12T02:02:50;36.63;;;21.95;;
41629;SDS011;27322;49.488;8.480;2023-02-12T02:05:30;36.47;;;21.80;;
41629;SDS011;27322;49.488;8.480;2023-02-12T02:08:05;38.63;;;21.83;;
41629;SDS011;27322;49.488;8.480;2023-02-12T02:10:30;36.35;;;21.95;;
41629;SDS011;27322;49.488;8.480;2023-02-12T02:12:56;33.25;;;20.55;;
41629;SDS011;27322;49.488;8.480;2023-02-12T02:15:41;33.85;;;20.98;;
41629;SDS011;27322;49.488;8.480;2023-02-12T02:18:11;34.08;;;21.27;;
41629;SDS011;27322;49.488;8.480;2023-02-12T02:29:40;33.08;;;20.02;;
41629;SDS011;27322;49.488;8.480;2023-02-12T02:32:23;32.88;;;19.90;;
41629;SDS011;27322;49.488;8.480;2023-02-12T02:35:06;33.60;;;20.20;;
41629;SDS011;27322;49.488;8.480;2023-02-12T02:38:05;32.40;;;20.85;;
41629;SDS011;27322;49.488;8.480;2023-02-12T02:43:28;33.65;;;20.30;;
41629;SDS011;27322;49.488;8.480;2023-02-12T02:46:08;32.97;;;19.60;;
41629;SDS011;27322;49.488;8.480;2023-02-12T02:48:43;32.80;;;19.02;;
41629;SDS011;27322;49.488;8.480;2023-02-12T02:51:14;32.75;;;19.52;;
41629;SDS011;27322;49.488;8.480;2023-02-12T02:53:55;32.55;;;19.50;;
41629;SDS011;27322;49.488;8.480;2023-02-12T02:56:25;31.23;;;18.25;;
41629;SDS011;27322;49.488;8.480;2023-02-12T02:58:57;30.80;;;18.60;;
41629;SDS011;27322;49.488;8.480;2023-02-12T03:01:30;33.72;;;19.80;;
41629;SDS011;27322;49.488;8.480;2023-02-12T03:04:05;33.42;;;20.08;;
41629;SDS011;27322;49.488;8.480;2023-02-12T03:06:46;32.75;;;19.52;;
41629;SDS011;27322;49.488;8.480;2023-02-12T03:11:46;32.92;;;20.05;;
41629;SDS011;27322;49.488;8.480;2023-02-12T03:14:31;31.75;;;20.08;;
41629;SDS011;27322;49.488;8.480;2023-02-12T03:17:01;31.65;;;19.60;;
41629;SDS011;27322;49.488;8.480;2023-02-12T03:19:41;37.03;;;21.08;;
41629;SDS011;27322;49.488;8.480;2023-02-12T03:22:15;32.63;;;19.45;;
41629;SDS011;27322;49.488;8.480;2023-02-12T03:24:50;34.42;;;20.52;;
41629;SDS011;27322;49.488;8.480;2023-02-12T03:27:23;34.10;;;20.27;;
41629;SDS011;27322;49.488;8.480;2023-02-12T03:29:55;34.55;;;20.55;;
41629;SDS011;27322;49.488;8.480;2023-02-12T03:40:31;35.03;;;20.80;;
41629;SDS011;27322;49.488;8.480;2023-02-12T03:45:49;33.22;;;20.30;;
41629;SDS011;27322;49.488;8.480;2023-02-12T03:53:47;35.38;;;20.25;;
41629;SDS011;27322;49.488;8.480;2023-02-12T03:56:14;34.42;;;20.92;;
41629;SDS011;27322;49.488;8.480;2023-02-12T03:58:46;32.33;;;19.98;;
41629;SDS011;27322;49.488;8.480;2023-02-12T04:01:12;33.13;;;20.60;;
41629;SDS011;27322;49.488;8.480;2023-02-12T04:03:38;34.05;;;21.42;;
41629;SDS011;27322;49.488;8.480;2023-02-12T04:06:04;35.70;;;22.05;;
41629;SDS011;27322;49.488;8.480;2023-02-12T04:08:42;39.30;;;22.48;;
41629;SDS011;27322;49.488;8.480;2023-02-12T04:24:43;39.15;;;22.25;;
41629;SDS011;27322;49.488;8.480;2023-02-12T04:30:24;43.58;;;24.52;;
41629;SDS011;27322;49.488;8.480;2023-02-12T04:33:04;40.25;;;24.00;;
41629;SDS011;27322;49.488;8.480;2023-02-12T04:35:41;43.05;;;24.38;;
41629;SDS011;27322;49.488;8.480;2023-02-12T04:38:14;38.20;;;24.00;;
41629;SDS011;27322;49.488;8.480;2023-02-12T04:40:44;39.85;;;23.95;;
41629;SDS011;27322;49.488;8.480;2023-02-12T04:43:11;38.83;;;23.48;;
41629;SDS011;27322;49.488;8.480;2023-02-12T04:45:37;42.55;;;24.38;;
41629;SDS011;27322;49.488;8.480;2023-02-12T04:48:03;42.10;;;25.35;;
41629;SDS011;27322;49.488;8.480;2023-02-12T04:50:40;42.30;;;24.38;;
41629;SDS011;27322;49.488;8.480;2023-02-12T04:53:08;45.60;;;25.48;;
41629;SDS011;27322;49.488;8.480;2023-02-12T04:55:34;42.17;;;24.48;;
41629;SDS011;27322;49.488;8.480;2023-02-12T04:58:00;43.58;;;26.50;;
41629;SDS011;27322;49.488;8.480;2023-02-12T05:00:25;45.47;;;26.73;;
41629;SDS011;27322;49.488;8.480;2023-02-12T05:02:51;40.15;;;23.42;;
41629;SDS011;27322;49.488;8.480;2023-02-12T05:05:17;41.25;;;24.33;;
41629;SDS011;27322;49.488;8.480;2023-02-12T05:07:43;44.17;;;25.60;;
41629;SDS011;27322;49.488;8.480;2023-02-12T05:10:08;41.47;;;25.02;;
41629;SDS011;27322;49.488;8.480;2023-02-12T05:12:34;41.70;;;25.10;;
41629;SDS011;27322;49.488;8.480;2023-02-12T05:15:00;45.00;;;26.30;;
41629;SDS011;27322;49.488;8.480;2023-02-12T05:17:25;41.05;;;25.23;;
41629;SDS011;27322;49.488;8.480;2023-02-12T05:19:51;43.05;;;24.92;;
41629;SDS011;27322;49.488;8.480;2023-02-12T05:22:17;42.85;;;24.52;;
41629;SDS011;27322;49.488;8.480;2023-02-12T05:24:43;41.95;;;25.42;;
41629;SDS011;27322;49.488;8.480;2023-02-12T05:27:09;42.58;;;25.95;;
41629;SDS011;27322;49.488;8.480;2023-02-12T05:29:35;41.30;;;25.38;;
41629;SDS011;27322;49.488;8.480;2023-02-12T05:32:01;43.08;;;25.42;;
41629;SDS011;27322;49.488;8.480;2023-02-12T05:34:27;41.53;;;25.23;;
41629;SDS011;27322;49.488;8.480;2023-02-12T05:36:52;42.15;;;25.10;;
41629;SDS011;27322;49.488;8.480;2023-02-12T05:39:18;39.13;;;24.88;;
41629;SDS011;27322;49.488;8.480;2023-02-12T05:41:43;39.55;;;25.00;;
41629;SDS011;27322;49.488;8.480;2023-02-12T05:44:09;40.45;;;24.23;;
41629;SDS011;27322;49.488;8.480;2023-02-12T05:46:39;44.28;;;26.83;;
41629;SDS011;27322;49.488;8.480;2023-02-12T05:49:05;43.40;;;25.23;;
41629;SDS011;27322;49.488;8.480;2023-02-12T05:51:30;43.17;;;25.63;;
41629;SDS011;27322;49.488;8.480;2023-02-12T05:53:57;43.53;;;25.08;;
41629;SDS011;27322;49.488;8.480;2023-02-12T05:56:26;39.42;;;23.70;;
41629;SDS011;27322;49.488;8.480;2023-02-12T05:58:58;40.83;;;23.73;;
41629;SDS011;27322;49.488;8.480;2023-02-12T06:01:30;38.08;;;24.02;;
41629;SDS011;27322;49.488;8.480;2023-02-12T06:04:00;41.83;;;25.45;;
41629;SDS011;27322;49.488;8.480;2023-02-12T06:06:28;40.30;;;24.27;;
41629;SDS011;27322;49.488;8.480;2023-02-12T06:08:54;39.28;;;23.00;;
41629;SDS011;27322;49.488;8.480;2023-02-12T06:11:23;36.97;;;22.42;;
41629;SDS011;27322;49.488;8.480;2023-02-12T06:13:49;42.47;;;25.13;;
41629;SDS011;27322;49.488;8.480;2023-02-12T06:16:25;42.28;;;25.15;;
41629;SDS011;27322;49.488;8.480;2023-02-12T06:18:52;42.78;;;25.15;;
41629;SDS011;27322;49.488;8.480;2023-02-12T06:21:19;42.28;;;24.73;;
41629;SDS011;27322;49.488;8.480;2023-02-12T06:23:46;39.53;;;23.77;;
41629;SDS011;27322;49.488;8.480;2023-02-12T06:26:12;39.60;;;23.33;;
41629;SDS011;27322;49.488;8.480;2023-02-12T06:28:38;43.55;;;24.88;;
41629;SDS011;27322;49.488;8.480;2023-02-12T06:31:03;37.88;;;23.48;;
41629;SDS011;27322;49.488;8.480;2023-02-12T06:33:29;37.28;;;22.27;;
41629;SDS011;27322;49.488;8.480;2023-02-12T06:35:55;41.08;;;23.92;;
41629;SDS011;27322;49.488;8.480;2023-02-12T06:38:20;39.95;;;23.63;;
41629;SDS011;27322;49.488;8.480;2023-02-12T06:40:46;41.30;;;24.73;;
41629;SDS011;27322;49.488;8.480;2023-02-12T06:43:12;38.78;;;23.52;;
41629;SDS011;27322;49.488;8.480;2023-02-12T06:45:37;42.53;;;24.65;;
41629;SDS011;27322;49.488;8.480;2023-02-12T06:48:03;39.75;;;23.77;;
41629;SDS011;27322;49.488;8.480;2023-02-12T06:50:29;37.05;;;22.35;;
41629;SDS011;27322;49.488;8.480;2023-02-12T06:52:55;37.92;;;22.55;;
41629;SDS011;27322;49.488;8.480;2023-02-12T06:55:22;42.35;;;24.05;;
41629;SDS011;27322;49.488;8.480;2023-02-12T06:57:48;42.75;;;24.20;;
41629;SDS011;27322;49.488;8.480;2023-02-12T07:00:14;40.97;;;25.17;;
41629;SDS011;27322;49.488;8.480;2023-02-12T07:02:40;41.50;;;25.08;;
41629;SDS011;27322;49.488;8.480;2023-02-12T07:05:05;43.08;;;25.05;;
41629;SDS011;27322;49.488;8.480;2023-02-12T07:07:31;40.00;;;23.45;;
41629;SDS011;27322;49.488;8.480;2023-02-12T07:09:57;44.45;;;26.45;;
41629;SDS011;27322;49.488;8.480;2023-02-12T07:12:22;44.33;;;26.95;;
41629;SDS011;27322;49.488;8.480;2023-02-12T07:14:48;46.08;;;26.13;;
41629;SDS011;27322;49.488;8.480;2023-02-12T07:17:13;41.97;;;24.33;;
41629;SDS011;27322;49.488;8.480;2023-02-12T07:19:39;43.88;;;25.48;;
41629;SDS011;27322;49.488;8.480;2023-02-12T07:22:04;41.75;;;24.80;;
41629;SDS011;27322;49.488;8.480;2023-02-12T07:24:30;41.97;;;24.95;;
41629;SDS011;27322;49.488;8.480;2023-02-12T07:26:56;41.88;;;25.10;;
41629;SDS011;27322;49.488;8.480;2023-02-12T07:29:21;43.28;;;24.73;;
41629;SDS011;27322;49.488;8.480;2023-02-12T07:31:47;42.35;;;24.30;;
41629;SDS011;27322;49.488;8.480;2023-02-12T07:34:12;43.03;;;24.70;;
41629;SDS011;27322;49.488;8.480;2023-02-12T07:36:38;41.38;;;24.60;;
41629;SDS011;27322;49.488;8.480;2023-02-12T07:39:04;38.20;;;22.80;;
41629;SDS011;27322;49.488;8.480;2023-02-12T07:41:33;43.45;;;25.50;;
41629;SDS011;27322;49.488;8.480;2023-02-12T07:46:29;41.95;;;24.48;;
41629;SDS011;27322;49.488;8.480;2023-02-12T07:48:59;40.38;;;24.05;;
41629;SDS011;27322;49.488;8.480;2023-02-12T07:51:27;43.03;;;25.15;;
41629;SDS011;27322;49.488;8.480;2023-02-12T07:53:53;39.65;;;24.65;;
41629;SDS011;27322;49.488;8.480;2023-02-12T07:56:22;39.45;;;24.17;;
41629;SDS011;27322;49.488;8.480;2023-02-12T07:58:53;40.72;;;24.42;;
41629;SDS011;27322;49.488;8.480;2023-02-12T08:01:20;42.08;;;24.42;;
41629;SDS011;27322;49.488;8.480;2023-02-12T08:03:52;42.67;;;25.45;;
41629;SDS011;27322;49.488;8.480;2023-02-12T08:06:19;42.05;;;24.88;;
41629;SDS011;27322;49.488;8.480;2023-02-12T08:08:50;41.58;;;25.05;;
41629;SDS011;27322;49.488;8.480;2023-02-12T08:11:16;42.03;;;26.17;;
41629;SDS011;27322;49.488;8.480;2023-02-12T08:13:42;44.25;;;25.02;;
41629;SDS011;27322;49.488;8.480;2023-02-12T08:16:10;42.55;;;25.50;;
41629;SDS011;27322;49.488;8.480;2023-02-12T08:18:38;45.13;;;25.98;;
41629;SDS011;27322;49.488;8.480;2023-02-12T08:21:07;42.17;;;24.70;;
41629;SDS011;27322;49.488;8.480;2023-02-12T08:23:35;41.70;;;24.38;;
41629;SDS011;27322;49.488;8.480;2023-02-12T08:28:30;41.47;;;26.05;;
41629;SDS011;27322;49.488;8.480;2023-02-12T08:31:00;48.15;;;28.92;;
41629;SDS011;27322;49.488;8.480;2023-02-12T08:36:00;48.30;;;28.50;;
41629;SDS011;27322;49.488;8.480;2023-02-12T08:38:30;50.50;;;29.65;;
41629;SDS011;27322;49.488;8.480;2023-02-12T08:41:00;49.95;;;29.23;;
41629;SDS011;27322;49.488;8.480;2023-02-12T08:43:30;44.83;;;25.93;;
41629;SDS011;27322;49.488;8.480;2023-02-12T08:46:15;45.42;;;26.27;;
41629;SDS011;27322;49.488;8.480;2023-02-12T08:48:43;42.58;;;25.92;;
41629;SDS011;27322;49.488;8.480;2023-02-12T08:51:10;41.28;;;24.05;;
41629;SDS011;27322;49.488;8.480;2023-02-12T08:53:38;42.90;;;24.92;;
41629;SDS011;27322;49.488;8.480;2023-02-12T08:56:05;41.65;;;24.77;;
41629;SDS011;27322;49.488;8.480;2023-02-12T08:58:32;40.75;;;25.40;;
41629;SDS011;27322;49.488;8.480;2023-02-12T09:00:58;43.28;;;24.02;;
41629;SDS011;27322;49.488;8.480;2023-02-12T09:03:24;39.03;;;23.92;;
41629;SDS011;27322;49.488;8.480;2023-02-12T09:05:50;43.67;;;24.42;;
41629;SDS011;27322;49.488;8.480;2023-02-12T09:08:16;39.40;;;24.48;;
41629;SDS011;27322;49.488;8.480;2023-02-12T09:10:42;41.88;;;24.38;;
41629;SDS011;27322;49.488;8.480;2023-02-12T09:13:08;39.85;;;23.63;;
41629;SDS011;27322;49.488;8.480;2023-02-12T09:15:38;38.78;;;24.35;;
41629;SDS011;27322;49.488;8.480;2023-02-12T09:18:05;41.80;;;23.75;;
41629;SDS011;27322;49.488;8.480;2023-02-12T09:20:32;36.85;;;22.27;;
41629;SDS011;27322;49.488;8.480;2023-02-12T09:22:58;43.35;;;23.30;;
41629;SDS011;27322;49.488;8.480;2023-02-12T09:25:24;40.10;;;23.02;;
41629;SDS011;27322;49.488;8.480;2023-02-12T09:27:50;38.33;;;22.45;;
41629;SDS011;27322;49.488;8.480;2023-02-12T09:30:16;40.35;;;23.45;;
41629;SDS011;27322;49.488;8.480;2023-02-12T09:32:42;37.72;;;22.08;;
41629;SDS011;27322;49.488;8.480;2023-02-12T09:35:08;39.80;;;23.08;;
41629;SDS011;27322;49.488;8.480;2023-02-12T09:37:36;38.55;;;22.85;;
41629;SDS011;27322;49.488;8.480;2023-02-12T09:40:04;42.72;;;23.67;;
41629;SDS011;27322;49.488;8.480;2023-02-12T09:45:25;36.85;;;21.98;;
41629;SDS011;27322;49.488;8.480;2023-02-12T09:53:20;38.63;;;23.90;;
41629;SDS011;27322;49.488;8.480;2023-02-12T09:55:52;38.78;;;22.58;;
41629;SDS011;27322;49.488;8.480;2023-02-12T10:01:17;36.67;;;22.65;;
41629;SDS011;27322;49.488;8.480;2023-02-12T10:03:44;38.10;;;23.10;;
41629;SDS011;27322;49.488;8.480;2023-02-12T10:22:28;39.30;;;21.88;;
41629;SDS011;27322;49.488;8.480;2023-02-12T10:27:59;35.92;;;21.48;;
41629;SDS011;27322;49.488;8.480;2023-02-12T10:30:33;33.90;;;20.50;;
41629;SDS011;27322;49.488;8.480;2023-02-12T10:33:18;34.90;;;20.17;;
41629;SDS011;27322;49.488;8.480;2023-02-12T10:38:48;34.15;;;20.58;;
41629;SDS011;27322;49.488;8.480;2023-02-12T10:41:19;37.75;;;21.17;;
41629;SDS011;27322;49.488;8.480;2023-02-12T10:43:45;34.42;;;20.33;;
41629;SDS011;27322;49.488;8.480;2023-02-12T10:46:12;35.58;;;20.40;;
41629;SDS011;27322;49.488;8.480;2023-02-12T10:48:39;36.42;;;20.38;;
41629;SDS011;27322;49.488;8.480;2023-02-12T10:53:35;30.85;;;19.27;;
41629;SDS011;27322;49.488;8.480;2023-02-12T10:58:51;32.25;;;18.13;;
41629;SDS011;27322;49.488;8.480;2023-02-12T11:01:21;30.73;;;17.85;;
41629;SDS011;27322;49.488;8.480;2023-02-12T11:03:50;30.80;;;18.65;;
41629;SDS011;27322;49.488;8.480;2023-02-12T11:06:18;27.15;;;16.27;;
41629;SDS011;27322;49.488;8.480;2023-02-12T11:08:54;30.52;;;16.73;;
41629;SDS011;27322;49.488;8.480;2023-02-12T11:13:52;29.27;;;16.60;;
41629;SDS011;27322;49.488;8.480;2023-02-12T11:16:29;28.55;;;16.05;;
41629;SDS011;27322;49.488;8.480;2023-02-12T11:18:58;28.92;;;16.45;;
41629;SDS011;27322;49.488;8.480;2023-02-12T11:24:19;30.65;;;16.10;;
41629;SDS011;27322;49.488;8.480;2023-02-12T11:29:37;28.30;;;14.38;;
41629;SDS011;27322;49.488;8.480;2023-02-12T11:32:04;30.73;;;14.65;;
41629;SDS011;27322;49.488;8.480;2023-02-12T11:34:35;29.48;;;16.60;;
41629;SDS011;27322;49.488;8.480;2023-02-12T11:37:02;30.55;;;15.80;;
41629;SDS011;27322;49.488;8.480;2023-02-12T11:39:30;27.98;;;16.08;;
41629;SDS011;27322;49.488;8.480;2023-02-12T11:41:59;28.08;;;14.88;;
41629;SDS011;27322;49.488;8.480;2023-02-12T11:44:35;24.17;;;13.80;;
41629;SDS011;27322;49.488;8.480;2023-02-12T11:47:08;25.42;;;13.68;;
41629;SDS011;27322;49.488;8.480;2023-02-12T11:49:53;22.60;;;12.27;;
41629;SDS011;27322;49.488;8.480;2023-02-12T11:52:27;20.83;;;12.65;;
41629;SDS011;27322;49.488;8.480;2023-02-12T11:54:56;24.40;;;12.70;;
41629;SDS011;27322;49.488;8.480;2023-02-12T11:57:38;21.80;;;12.02;;
41629;SDS011;27322;49.488;8.480;2023-02-12T12:00:11;21.33;;;11.65;;
41629;SDS011;27322;49.488;8.480;2023-02-12T12:02:52;19.88;;;11.27;;
41629;SDS011;27322;49.488;8.480;2023-02-12T12:05:40;21.83;;;11.77;;
41629;SDS011;27322;49.488;8.480;2023-02-12T12:11:21;22.77;;;12.10;;
41629;SDS011;27322;49.488;8.480;2023-02-12T12:19:58;19.45;;;10.43;;
41629;SDS011;27322;49.488;8.480;2023-02-12T12:25:25;21.00;;;10.98;;
41629;SDS011;27322;49.488;8.480;2023-02-12T12:38:43;17.35;;;10.30;;
41629;SDS011;27322;49.488;8.480;2023-02-12T13:00:39;16.92;;;9.63;;
41629;SDS011;27322;49.488;8.480;2023-02-12T13:03:31;15.68;;;8.77;;
41629;SDS011;27322;49.488;8.480;2023-02-12T13:06:20;15.18;;;8.32;;
41629;SDS011;27322;49.488;8.480;2023-02-12T13:17:04;18.20;;;9.90;;
41629;SDS011;27322;49.488;8.480;2023-02-12T13:19:52;16.80;;;9.40;;
41629;SDS011;27322;49.488;8.480;2023-02-12T13:25:14;18.20;;;9.48;;
41629;SDS011;27322;49.488;8.480;2023-02-12T13:27:46;15.43;;;9.77;;
41629;SDS011;27322;49.488;8.480;2023-02-12T13:30:22;17.67;;;10.18;;
41629;SDS011;27322;49.488;8.480;2023-02-12T13:33:04;15.90;;;9.43;;
41629;SDS011;27322;49.488;8.480;2023-02-12T13:35:40;16.08;;;9.45;;
41629;SDS011;27322;49.488;8.480;2023-02-12T13:38:12;16.02;;;9.90;;
41629;SDS011;27322;49.488;8.480;2023-02-12T13:40:46;15.77;;;9.45;;
41629;SDS011;27322;49.488;8.480;2023-02-12T13:43:29;14.38;;;8.10;;
41629;SDS011;27322;49.488;8.480;2023-02-12T13:46:03;14.32;;;8.45;;
41629;SDS011;27322;49.488;8.480;2023-02-12T13:51:49;12.82;;;7.70;;
41629;SDS011;27322;49.488;8.480;2023-02-12T13:54:44;11.82;;;6.78;;
41629;SDS011;27322;49.488;8.480;2023-02-12T13:57:13;10.68;;;5.93;;
41629;SDS011;27322;49.488;8.480;2023-02-12T14:04:44;12.48;;;6.43;;
41629;SDS011;27322;49.488;8.480;2023-02-12T14:07:12;10.63;;;5.90;;
41629;SDS011;27322;49.488;8.480;2023-02-12T14:14:45;10.38;;;5.65;;
41629;SDS011;27322;49.488;8.480;2023-02-12T14:20:04;10.10;;;5.60;;
41629;SDS011;27322;49.488;8.480;2023-02-12T14:30:31;9.88;;;5.80;;
41629;SDS011;27322;49.488;8.480;2023-02-12T14:35:48;11.18;;;6.00;;
41629;SDS011;27322;49.488;8.480;2023-02-12T14:47:00;11.75;;;6.18;;
41629;SDS011;27322;49.488;8.480;2023-02-12T14:49:45;10.93;;;6.28;;
41629;SDS011;27322;49.488;8.480;2023-02-12T14:59:53;10.68;;;6.10;;
41629;SDS011;27322;49.488;8.480;2023-02-12T15:02:24;12.52;;;6.13;;
41629;SDS011;27322;49.488;8.480;2023-02-12T15:04:52;10.13;;;5.75;;
41629;SDS011;27322;49.488;8.480;2023-02-12T15:07:27;11.10;;;5.65;;
41629;SDS011;27322;49.488;8.480;2023-02-12T15:09:59;10.57;;;6.03;;
41629;SDS011;27322;49.488;8.480;2023-02-12T15:12:38;13.32;;;6.22;;
41629;SDS011;27322;49.488;8.480;2023-02-12T15:21:03;19.08;;;10.90;;
41629;SDS011;27322;49.488;8.480;2023-02-12T15:23:45;18.35;;;9.82;;
41629;SDS011;27322;49.488;8.480;2023-02-12T15:26:12;20.13;;;10.30;;
41629;SDS011;27322;49.488;8.480;2023-02-12T15:28:40;19.70;;;10.48;;
41629;SDS011;27322;49.488;8.480;2023-02-12T15:31:07;19.25;;;10.52;;
41629;SDS011;27322;49.488;8.480;2023-02-12T15:33:35;21.05;;;10.93;;
41629;SDS011;27322;49.488;8.480;2023-02-12T15:36:04;19.83;;;10.32;;
41629;SDS011;27322;49.488;8.480;2023-02-12T15:38:37;20.58;;;10.70;;
41629;SDS011;27322;49.488;8.480;2023-02-12T15:41:08;20.67;;;10.70;;
41629;SDS011;27322;49.488;8.480;2023-02-12T15:43:47;21.15;;;10.98;;
41629;SDS011;27322;49.488;8.480;2023-02-12T15:46:14;22.65;;;11.65;;
41629;SDS011;27322;49.488;8.480;2023-02-12T15:48:42;24.83;;;12.63;;
41629;SDS011;27322;49.488;8.480;2023-02-12T15:53:54;24.38;;;12.93;;
41629;SDS011;27322;49.488;8.480;2023-02-12T15:56:22;25.63;;;13.40;;
41629;SDS011;27322;49.488;8.480;2023-02-12T15:58:51;25.13;;;12.88;;
41629;SDS011;27322;49.488;8.480;2023-02-12T16:01:19;27.58;;;14.63;;
41629;SDS011;27322;49.488;8.480;2023-02-12T16:03:53;25.83;;;13.57;;
41629;SDS011;27322;49.488;8.480;2023-02-12T16:06:22;27.90;;;13.68;;
41629;SDS011;27322;49.488;8.480;2023-02-12T16:08:49;28.48;;;14.32;;
41629;SDS011;27322;49.488;8.480;2023-02-12T16:11:30;26.52;;;14.02;;
41629;SDS011;27322;49.488;8.480;2023-02-12T16:14:04;26.08;;;14.10;;
41629;SDS011;27322;49.488;8.480;2023-02-12T16:16:39;26.42;;;13.85;;
41629;SDS011;27322;49.488;8.480;2023-02-12T16:19:27;27.15;;;13.93;;
41629;SDS011;27322;49.488;8.480;2023-02-12T16:21:56;31.00;;;14.52;;
41629;SDS011;27322;49.488;8.480;2023-02-12T16:24:27;28.20;;;14.85;;
41629;SDS011;27322;49.488;8.480;2023-02-12T16:29:44;28.38;;;14.68;;
41629;SDS011;27322;49.488;8.480;2023-02-12T16:32:29;29.10;;;14.27;;
41629;SDS011;27322;49.488;8.480;2023-02-12T16:35:06;29.00;;;15.45;;
41629;SDS011;27322;49.488;8.480;2023-02-12T16:38:02;29.17;;;15.25;;
41629;SDS011;27322;49.488;8.480;2023-02-12T16:43:43;30.20;;;15.20;;
41629;SDS011;27322;49.488;8.480;2023-02-12T16:46:09;30.73;;;15.77;;
41629;SDS011;27322;49.488;8.480;2023-02-12T16:48:37;31.58;;;16.15;;
41629;SDS011;27322;49.488;8.480;2023-02-12T16:51:05;28.90;;;15.23;;
41629;SDS011;27322;49.488;8.480;2023-02-12T16:53:44;28.90;;;14.98;;
41629;SDS011;27322;49.488;8.480;2023-02-12T16:56:12;26.55;;;14.35;;
41629;SDS011;27322;49.488;8.480;2023-02-12T16:58:42;29.60;;;15.70;;
41629;SDS011;27322;49.488;8.480;2023-02-12T17:01:08;31.70;;;15.65;;
41629;SDS011;27322;49.488;8.480;2023-02-12T17:03:41;30.63;;;16.02;;
41629;SDS011;27322;49.488;8.480;2023-02-12T17:06:08;31.00;;;15.60;;
41629;SDS011;27322;49.488;8.480;2023-02-12T17:08:35;34.67;;;16.38;;
41629;SDS011;27322;49.488;8.480;2023-02-12T17:11:00;32.00;;;15.57;;
41629;SDS011;27322;49.488;8.480;2023-02-12T17:13:26;28.77;;;14.60;;
41629;SDS011;27322;49.488;8.480;2023-02-12T17:15:54;29.88;;;15.48;;
41629;SDS011;27322;49.488;8.480;2023-02-12T17:18:21;33.10;;;16.15;;
41629;SDS011;27322;49.488;8.480;2023-02-12T17:20:52;31.48;;;16.40;;
41629;SDS011;27322;49.488;8.480;2023-02-12T17:23:20;33.15;;;16.35;;
41629;SDS011;27322;49.488;8.480;2023-02-12T17:25:47;29.65;;;15.05;;
41629;SDS011;27322;49.488;8.480;2023-02-12T17:28:13;31.70;;;16.58;;
41629;SDS011;27322;49.488;8.480;2023-02-12T17:30:38;32.83;;;17.30;;
41629;SDS011;27322;49.488;8.480;2023-02-12T17:33:04;32.95;;;17.45;;
41629;SDS011;27322;49.488;8.480;2023-02-12T17:35:30;32.85;;;16.77;;
41629;SDS011;27322;49.488;8.480;2023-02-12T17:37:55;34.65;;;16.63;;
41629;SDS011;27322;49.488;8.480;2023-02-12T17:40:21;28.85;;;16.10;;
41629;SDS011;27322;49.488;8.480;2023-02-12T17:42:47;32.17;;;17.08;;
41629;SDS011;27322;49.488;8.480;2023-02-12T17:45:12;30.45;;;16.90;;
41629;SDS011;27322;49.488;8.480;2023-02-12T17:47:38;32.10;;;17.20;;
41629;SDS011;27322;49.488;8.480;2023-02-12T17:50:07;34.95;;;17.95;;
41629;SDS011;27322;49.488;8.480;2023-02-12T17:52:38;30.73;;;17.10;;
41629;SDS011;27322;49.488;8.480;2023-02-12T17:55:04;35.75;;;18.05;;
41629;SDS011;27322;49.488;8.480;2023-02-12T17:57:30;35.03;;;18.13;;
41629;SDS011;27322;49.488;8.480;2023-02-12T17:59:56;32.58;;;17.42;;
41629;SDS011;27322;49.488;8.480;2023-02-12T18:02:22;30.98;;;16.95;;
41629;SDS011;27322;49.488;8.480;2023-02-12T18:04:48;32.03;;;17.92;;
41629;SDS011;27322;49.488;8.480;2023-02-12T18:07:13;32.45;;;17.02;;
41629;SDS011;27322;49.488;8.480;2023-02-12T18:09:39;34.17;;;17.63;;